createdAt,value
2023-01-18T00:01:38.908Z,1.70
2023-01-18T00:04:05.498Z,1.57
2023-01-18T00:06:31.997Z,1.47
2023-01-18T00:08:58.430Z,1.53
2023-01-18T00:11:24.798Z,1.48
2023-01-18T00:13:53.457Z,1.40
2023-01-18T00:16:21.054Z,1.34
2023-01-18T00:18:50.249Z,1.50
2023-01-18T00:21:16.605Z,1.45
2023-01-18T00:23:42.995Z,1.56
2023-01-18T00:26:11.430Z,1.21
2023-01-18T00:28:38.722Z,1.13
2023-01-18T00:31:10.247Z,1.15
2023-01-18T00:33:36.702Z,0.91
2023-01-18T00:36:04.613Z,0.72
2023-01-18T00:38:31.124Z,0.62
2023-01-18T00:40:57.514Z,0.52
2023-01-18T00:43:39.255Z,0.43
2023-01-18T00:46:06.426Z,0.34
2023-01-18T00:48:33.585Z,0.36
2023-01-18T00:51:00.659Z,0.36
2023-01-18T00:53:27.567Z,0.39
2023-01-18T00:55:54.065Z,0.28
2023-01-18T00:58:20.646Z,0.21
2023-01-18T01:00:48.241Z,0.17
2023-01-18T01:03:14.818Z,0.17
2023-01-18T01:06:01.082Z,0.24
2023-01-18T01:08:27.556Z,0.13
2023-01-18T01:11:04.606Z,0.10
2023-01-18T01:13:49.239Z,0.05
2023-01-18T01:16:33.752Z,0.16
2023-01-18T01:19:18.262Z,0.10
2023-01-18T01:22:03.533Z,0.09
2023-01-18T01:24:48.078Z,-0.01
2023-01-18T01:27:14.609Z,0.11
2023-01-18T01:29:41.086Z,0.18
2023-01-18T01:32:07.667Z,0.03
2023-01-18T01:34:35.187Z,0.06
2023-01-18T01:37:02.635Z,0.10
2023-01-18T01:39:29.813Z,-0.01
2023-01-18T01:41:56.302Z,0.04
2023-01-18T01:44:55.690Z,0.30
2023-01-18T01:47:39.481Z,0.12
2023-01-18T01:50:15.393Z,0.10
2023-01-18T01:52:45.074Z,0.05
2023-01-18T01:55:20.488Z,0.56
2023-01-18T01:57:52.716Z,0.72
2023-01-18T02:00:23.372Z,0.80
2023-01-18T02:02:58.227Z,0.73
2023-01-18T02:05:26.476Z,1.40
2023-01-18T02:07:55.367Z,1.15
2023-01-18T02:10:22.336Z,1.08
2023-01-18T02:12:51.047Z,1.36
2023-01-18T02:15:20.018Z,1.61
2023-01-18T02:18:06.612Z,2.00
2023-01-18T02:20:52.789Z,1.84
2023-01-18T02:23:32.006Z,1.99
2023-01-18T02:26:33.825Z,1.93
2023-01-18T02:29:11.364Z,1.95
2023-01-18T02:31:45.599Z,2.17
2023-01-18T02:34:19.940Z,2.19
2023-01-18T02:37:00.496Z,2.08
2023-01-18T02:39:38.517Z,2.07
2023-01-18T02:42:33.865Z,2.18
2023-01-18T02:45:21.643Z,2.22
2023-01-18T02:47:48.303Z,2.34
2023-01-18T02:50:21.973Z,2.10
2023-01-18T02:52:50.583Z,2.10
2023-01-18T02:55:24.715Z,2.29
2023-01-18T02:57:55.781Z,2.36
2023-01-18T03:00:24.968Z,2.39
2023-01-18T03:02:56.086Z,2.27
2023-01-18T03:05:23.992Z,2.09
2023-01-18T03:07:54.669Z,2.02
2023-01-18T03:10:27.618Z,1.95
2023-01-18T03:12:59.606Z,2.00
2023-01-18T03:15:38.271Z,1.96
2023-01-18T03:18:10.912Z,1.97
2023-01-18T03:20:42.264Z,1.92
2023-01-18T03:23:34.472Z,1.86
2023-01-18T03:26:03.967Z,1.92
2023-01-18T03:28:52.985Z,1.89
2023-01-18T03:31:44.684Z,2.00
2023-01-18T03:34:18.967Z,2.19
2023-01-18T03:36:51.647Z,2.19
2023-01-18T03:39:22.824Z,2.09
2023-01-18T03:41:53.160Z,2.17
2023-01-18T03:44:25.230Z,2.49
2023-01-18T03:46:52.489Z,2.63
2023-01-18T03:49:18.917Z,2.26
2023-01-18T03:52:01.546Z,1.85
2023-01-18T03:54:34.439Z,1.52
2023-01-18T03:57:05.479Z,1.31
2023-01-18T03:59:36.070Z,1.35
2023-01-18T04:02:04.057Z,1.64
2023-01-18T04:04:30.647Z,2.02
2023-01-18T04:06:57.573Z,2.16
2023-01-18T04:09:24.030Z,1.91
2023-01-18T04:11:50.470Z,2.01
2023-01-18T04:14:16.907Z,1.99
2023-01-18T04:16:43.485Z,1.90
2023-01-18T04:19:10.647Z,1.98
2023-01-18T04:21:37.804Z,2.09
2023-01-18T04:24:04.651Z,2.34
2023-01-18T04:26:33.397Z,2.10
2023-01-18T04:28:59.952Z,2.22
2023-01-18T04:31:27.589Z,2.37
2023-01-18T04:33:54.009Z,2.61
2023-01-18T04:36:21.570Z,2.79
2023-01-18T04:38:52.694Z,2.40
2023-01-18T04:41:19.251Z,2.27
2023-01-18T04:43:45.672Z,2.02
2023-01-18T04:46:12.152Z,1.82
2023-01-18T04:48:38.561Z,1.90
2023-01-18T04:51:10.305Z,1.73
2023-01-18T04:53:37.411Z,1.79
2023-01-18T04:56:04.186Z,1.87
2023-01-18T04:58:30.608Z,1.89
2023-01-18T05:01:01.211Z,1.81
2023-01-18T05:03:27.631Z,1.76
2023-01-18T05:05:54.423Z,1.81
2023-01-18T05:08:20.800Z,1.94
2023-01-18T05:10:47.873Z,1.82
2023-01-18T05:13:14.288Z,1.76
2023-01-18T05:15:40.684Z,1.68
2023-01-18T05:18:07.127Z,1.75
2023-01-18T05:20:33.518Z,1.67
2023-01-18T05:23:09.815Z,1.63
2023-01-18T05:25:38.388Z,1.53
2023-01-18T05:28:07.475Z,1.46
2023-01-18T05:30:34.120Z,1.39
2023-01-18T05:33:01.859Z,1.46
2023-01-18T05:35:28.558Z,1.45
2023-01-18T05:37:55.056Z,1.51
2023-01-18T05:40:21.454Z,1.53
2023-01-18T05:42:47.842Z,1.54
2023-01-18T05:45:15.077Z,1.57
2023-01-18T05:47:41.643Z,1.48
2023-01-18T05:50:09.346Z,1.59
2023-01-18T05:52:35.743Z,1.59
2023-01-18T05:55:02.180Z,1.56
2023-01-18T05:57:28.625Z,1.64
2023-01-18T05:59:55.000Z,1.60
2023-01-18T06:02:23.838Z,1.63
2023-01-18T06:04:50.280Z,1.58
2023-01-18T06:07:16.675Z,1.42
2023-01-18T06:09:43.122Z,1.58
2023-01-18T06:12:09.785Z,1.52
2023-01-18T06:14:39.092Z,1.61
2023-01-18T06:17:08.099Z,1.59
2023-01-18T06:19:35.589Z,1.63
2023-01-18T06:22:02.008Z,1.58
2023-01-18T06:24:28.386Z,1.52
2023-01-18T06:26:54.763Z,1.53
2023-01-18T06:29:21.165Z,1.47
2023-01-18T06:31:47.619Z,1.64
2023-01-18T06:34:14.346Z,1.54
2023-01-18T06:36:42.811Z,1.49
2023-01-18T06:39:12.525Z,1.79
2023-01-18T06:41:39.018Z,1.67
2023-01-18T06:44:05.985Z,1.96
2023-01-18T06:46:33.537Z,1.88
2023-01-18T06:49:00.044Z,2.16
2023-01-18T06:51:26.748Z,1.77
2023-01-18T06:53:53.917Z,1.67
2023-01-18T06:56:20.361Z,1.57
2023-01-18T06:58:48.723Z,1.65
2023-01-18T07:01:15.440Z,1.52
2023-01-18T07:03:41.951Z,1.49
2023-01-18T07:06:08.590Z,1.40
2023-01-18T07:08:35.092Z,1.53
2023-01-18T07:11:05.282Z,1.45
2023-01-18T07:13:31.766Z,1.58
2023-01-18T07:16:01.367Z,1.61
2023-01-18T07:18:29.404Z,1.59
2023-01-18T07:20:58.015Z,1.91
2023-01-18T07:23:24.442Z,2.22
2023-01-18T07:25:57.969Z,2.43
2023-01-18T07:28:25.061Z,2.31
2023-01-18T07:30:51.649Z,2.46
2023-01-18T07:33:18.155Z,2.49
2023-01-18T07:35:44.656Z,2.58
2023-01-18T07:38:11.064Z,2.29
2023-01-18T07:40:37.507Z,2.08
2023-01-18T07:43:08.689Z,1.97
2023-01-18T07:45:37.146Z,2.01
2023-01-18T07:48:03.777Z,1.95
2023-01-18T07:50:30.257Z,2.01
2023-01-18T07:52:59.011Z,2.00
2023-01-18T07:55:25.663Z,2.21
2023-01-18T07:57:52.201Z,2.25
2023-01-18T08:00:21.281Z,2.26
2023-01-18T08:02:54.034Z,2.49
2023-01-18T08:05:23.361Z,2.71
2023-01-18T08:07:49.904Z,2.70
2023-01-18T08:10:17.673Z,2.46
2023-01-18T08:12:46.781Z,2.60
2023-01-18T08:15:13.339Z,2.99
2023-01-18T08:17:40.278Z,2.94
2023-01-18T08:20:09.546Z,3.01
2023-01-18T08:22:36.345Z,3.04
2023-01-18T08:25:03.137Z,3.54
2023-01-18T08:27:29.812Z,3.70
2023-01-18T08:29:56.507Z,3.29
2023-01-18T08:32:23.175Z,2.97
2023-01-18T08:34:49.852Z,2.87
2023-01-18T08:37:16.947Z,3.08
2023-01-18T08:39:43.425Z,3.48
2023-01-18T08:42:11.488Z,3.33
2023-01-18T08:44:38.014Z,3.35
2023-01-18T08:47:04.560Z,2.97
2023-01-18T08:49:31.982Z,2.75
2023-01-18T08:51:58.567Z,2.76
2023-01-18T08:54:25.724Z,2.77
2023-01-18T08:56:52.131Z,2.83
2023-01-18T08:59:19.187Z,2.88
2023-01-18T09:01:45.793Z,2.91
2023-01-18T09:04:13.009Z,2.97
2023-01-18T09:06:39.486Z,3.12
2023-01-18T09:09:06.677Z,2.95
2023-01-18T09:11:33.844Z,3.00
2023-01-18T09:14:01.930Z,3.11
2023-01-18T09:16:29.589Z,3.04
2023-01-18T09:18:57.482Z,2.96
2023-01-18T09:21:24.414Z,3.06
2023-01-18T09:23:51.127Z,2.96
2023-01-18T09:26:19.782Z,2.98
2023-01-18T09:28:50.242Z,3.07
2023-01-18T09:31:16.727Z,3.11
2023-01-18T09:33:52.335Z,3.02
2023-01-18T09:36:20.741Z,3.02
2023-01-18T09:38:47.261Z,3.03
2023-01-18T09:41:27.959Z,3.06
2023-01-18T09:43:57.967Z,2.99
2023-01-18T09:46:24.720Z,3.02
2023-01-18T09:48:54.696Z,2.91
2023-01-18T09:51:25.146Z,3.06
2023-01-18T09:54:04.480Z,3.16
2023-01-18T09:56:39.390Z,3.16
2023-01-18T09:59:18.034Z,3.29
2023-01-18T10:01:45.618Z,3.28
2023-01-18T10:04:17.156Z,3.15
2023-01-18T10:06:47.793Z,3.19
2023-01-18T10:09:17.772Z,3.20
2023-01-18T10:11:54.241Z,3.09
2023-01-18T10:14:29.235Z,2.86
2023-01-18T10:17:04.728Z,2.76
2023-01-18T10:19:32.881Z,2.69
2023-01-18T10:22:06.046Z,2.62
2023-01-18T10:24:51.722Z,2.67
2023-01-18T10:27:39.431Z,2.73
2023-01-18T10:30:22.443Z,3.13
2023-01-18T10:32:53.567Z,3.34
2023-01-18T10:35:27.470Z,3.40
2023-01-18T10:37:57.695Z,3.90
2023-01-18T10:40:24.513Z,3.90
2023-01-18T10:42:53.751Z,3.49
2023-01-18T10:45:23.860Z,3.33
2023-01-18T10:47:53.016Z,3.23
2023-01-18T10:50:22.392Z,3.36
2023-01-18T10:52:49.228Z,3.22
2023-01-18T10:55:17.689Z,2.98
2023-01-18T10:57:47.878Z,2.85
2023-01-18T11:03:19.167Z,2.61
2023-01-18T11:05:46.073Z,2.60
2023-01-18T11:08:22.091Z,2.69
2023-01-18T11:10:58.642Z,2.83
2023-01-18T11:13:28.729Z,2.76
2023-01-18T11:16:14.966Z,2.63
2023-01-18T11:18:56.138Z,2.68
2023-01-18T11:21:23.399Z,2.81
2023-01-18T11:23:51.303Z,2.78
2023-01-18T11:26:19.642Z,2.71
2023-01-18T11:28:53.612Z,2.83
2023-01-18T11:31:22.676Z,2.66
2023-01-18T11:33:52.360Z,2.60
2023-01-18T11:36:20.522Z,2.59
2023-01-18T11:38:47.773Z,2.48
2023-01-18T11:41:17.834Z,2.40
2023-01-18T11:44:08.227Z,2.14
2023-01-18T11:46:43.005Z,2.25
2023-01-18T11:49:24.241Z,2.17
2023-01-18T11:51:55.356Z,2.32
2023-01-18T11:54:30.206Z,2.48
2023-01-18T11:56:59.021Z,2.56
2023-01-18T11:59:29.705Z,2.65
2023-01-18T12:02:29.233Z,2.50
2023-01-18T12:05:21.681Z,2.78
2023-01-18T12:08:01.539Z,2.56
2023-01-18T12:10:40.472Z,2.37
2023-01-18T12:13:32.782Z,2.23
2023-01-18T12:16:07.763Z,2.25
2023-01-18T12:18:56.801Z,2.47
2023-01-18T12:21:36.247Z,2.18
2023-01-18T12:24:21.036Z,2.19
2023-01-18T12:26:51.967Z,2.20
2023-01-18T12:29:47.622Z,2.30
2023-01-18T12:32:30.045Z,2.18
2023-01-18T12:35:24.147Z,2.08
2023-01-18T12:38:00.211Z,2.18
2023-01-18T12:40:38.821Z,2.55
2023-01-18T12:43:19.866Z,2.14
2023-01-18T12:45:50.574Z,2.19
2023-01-18T12:48:23.946Z,2.38
2023-01-18T12:50:51.302Z,2.17
2023-01-18T12:53:23.929Z,2.53
2023-01-18T12:55:54.273Z,2.63
2023-01-18T12:58:24.874Z,2.53
2023-01-18T13:00:55.856Z,2.42
2023-01-18T13:03:28.247Z,2.21
2023-01-18T13:05:57.648Z,2.10
2023-01-18T13:08:38.679Z,2.00
2023-01-18T13:11:12.489Z,1.89
2023-01-18T13:13:41.261Z,1.72
2023-01-18T13:16:18.637Z,1.29
2023-01-18T13:18:54.847Z,1.29
2023-01-18T13:21:34.804Z,1.47
2023-01-18T13:24:11.400Z,1.57
2023-01-18T13:26:38.189Z,1.35
2023-01-18T13:29:15.995Z,1.02
2023-01-18T13:31:43.541Z,1.06
2023-01-18T13:34:25.862Z,1.00
2023-01-18T13:36:59.740Z,1.23
2023-01-18T13:39:45.095Z,1.20
2023-01-18T13:42:32.440Z,1.51
2023-01-18T13:45:19.730Z,1.92
2023-01-18T13:47:59.374Z,1.79
2023-01-18T13:50:46.402Z,1.27
2023-01-18T13:53:48.728Z,1.13
2023-01-18T13:56:26.820Z,0.97
2023-01-18T13:58:59.116Z,0.79
2023-01-18T14:01:31.894Z,0.76
2023-01-18T14:04:06.890Z,0.70
2023-01-18T14:06:36.971Z,0.57
2023-01-18T14:09:06.419Z,0.73
2023-01-18T14:11:38.788Z,0.78
2023-01-18T14:14:22.935Z,1.20
2023-01-18T14:16:56.721Z,1.39
2023-01-18T14:19:23.601Z,1.48
2023-01-18T14:22:23.737Z,1.27
2023-01-18T14:25:16.606Z,1.18
2023-01-18T14:27:45.851Z,1.33
2023-01-18T14:30:20.851Z,1.15
2023-01-18T14:32:59.105Z,0.95
2023-01-18T14:35:26.101Z,0.77
2023-01-18T14:38:16.956Z,0.74
2023-01-18T14:40:47.229Z,0.72
2023-01-18T14:43:20.602Z,0.53
2023-01-18T14:45:55.136Z,0.60
2023-01-18T14:48:23.490Z,0.46
2023-01-18T14:50:52.694Z,0.49
2023-01-18T14:53:23.129Z,0.47
2023-01-18T14:56:06.335Z,0.42
2023-01-18T14:58:37.081Z,0.43
2023-01-18T15:01:04.908Z,0.55
2023-01-18T15:03:33.510Z,0.62
2023-01-18T15:06:07.961Z,0.62
2023-01-18T15:08:34.606Z,0.52
2023-01-18T15:11:06.088Z,0.51
2023-01-18T15:13:37.503Z,0.42
2023-01-18T15:16:05.853Z,0.51
2023-01-18T15:18:32.373Z,0.51
2023-01-18T15:21:02.998Z,0.51
2023-01-18T15:23:31.502Z,0.40
2023-01-18T15:25:58.509Z,0.37
2023-01-18T15:28:33.088Z,0.26
2023-01-18T15:31:05.812Z,0.30
2023-01-18T15:33:35.095Z,0.28
2023-01-18T15:36:01.969Z,0.28
2023-01-18T15:38:28.708Z,0.22
2023-01-18T15:41:00.348Z,0.18
2023-01-18T15:43:31.268Z,0.14
2023-01-18T15:45:58.479Z,0.24
2023-01-18T15:48:27.141Z,0.25
2023-01-18T15:50:55.296Z,0.23
2023-01-18T15:53:28.698Z,0.24
2023-01-18T15:55:57.703Z,0.18
2023-01-18T15:58:30.158Z,0.17
2023-01-18T16:00:59.478Z,0.19
2023-01-18T16:03:28.837Z,0.12
2023-01-18T16:06:10.440Z,0.02
2023-01-18T16:08:55.702Z,-0.05
2023-01-18T16:11:28.844Z,0.03
2023-01-18T16:13:57.532Z,0.00
2023-01-18T16:16:24.953Z,0.09
2023-01-18T16:19:00.413Z,0.00
2023-01-18T16:21:39.583Z,0.02
2023-01-18T16:24:15.010Z,0.05
2023-01-18T16:26:42.999Z,0.03
2023-01-18T16:29:10.362Z,-0.05
2023-01-18T16:31:40.288Z,0.12
2023-01-18T16:34:18.372Z,0.08
2023-01-18T16:36:45.107Z,0.03
2023-01-18T16:39:11.542Z,-0.01
2023-01-18T16:41:37.967Z,-0.09
2023-01-18T16:44:04.694Z,-0.01
2023-01-18T16:46:33.035Z,-0.05
2023-01-18T16:49:00.147Z,-0.01
2023-01-18T16:51:27.953Z,0.04
2023-01-18T16:53:54.428Z,0.09
2023-01-18T16:56:21.835Z,0.06
2023-01-18T16:58:48.451Z,0.12
2023-01-18T17:01:16.277Z,0.15
2023-01-18T17:03:43.088Z,0.09
2023-01-18T17:06:16.881Z,0.18
2023-01-18T17:08:43.699Z,0.11
2023-01-18T17:11:11.699Z,0.25
2023-01-18T17:13:38.260Z,0.80
2023-01-18T17:16:05.860Z,0.84
2023-01-18T17:18:32.406Z,0.76
2023-01-18T17:20:58.923Z,0.59
2023-01-18T17:23:26.055Z,0.40
2023-01-18T17:25:52.533Z,0.31
2023-01-18T17:28:19.331Z,0.28
2023-01-18T17:30:48.213Z,0.19
2023-01-18T17:33:17.075Z,0.15
2023-01-18T17:35:44.234Z,0.05
2023-01-18T17:38:17.280Z,-0.02
2023-01-18T17:40:50.139Z,0.09
2023-01-18T17:43:28.551Z,0.11
2023-01-18T17:46:02.205Z,0.11
2023-01-18T17:48:29.245Z,0.16
2023-01-18T17:50:55.864Z,0.16
2023-01-18T17:53:22.420Z,0.23
2023-01-18T17:55:49.289Z,0.23
2023-01-18T17:58:16.713Z,0.14
2023-01-18T18:00:43.253Z,0.05
2023-01-18T18:03:10.231Z,-0.08
2023-01-18T18:05:36.867Z,-0.11
2023-01-18T18:08:03.493Z,-0.08
2023-01-18T18:10:30.354Z,-0.07
2023-01-18T18:12:57.000Z,-0.10
2023-01-18T18:15:24.264Z,-0.05
2023-01-18T18:17:50.774Z,0.08
2023-01-18T18:20:17.794Z,-0.01
2023-01-18T18:22:44.561Z,-0.01
2023-01-18T18:25:11.010Z,0.00
2023-01-18T18:27:45.546Z,-0.01
2023-01-18T18:30:13.024Z,0.02
2023-01-18T18:32:40.254Z,0.00
2023-01-18T18:35:22.970Z,-0.01
2023-01-18T18:37:50.839Z,-0.12
2023-01-18T18:40:18.201Z,-0.18
2023-01-18T18:42:52.758Z,-0.23
2023-01-18T18:45:26.791Z,-0.23
2023-01-18T18:47:53.985Z,-0.28
2023-01-18T18:50:20.547Z,-0.35
2023-01-18T18:52:47.088Z,-0.40
2023-01-18T18:55:13.703Z,-0.50
2023-01-18T18:57:43.040Z,-0.55
2023-01-18T19:00:10.745Z,-0.63
2023-01-18T19:02:37.266Z,-0.64
2023-01-18T19:05:05.071Z,-0.77
2023-01-18T19:07:33.403Z,-0.74
2023-01-18T19:10:00.001Z,-0.73
2023-01-18T19:12:26.783Z,-0.72
2023-01-18T19:14:53.457Z,-0.68
2023-01-18T19:17:29.855Z,-0.64
2023-01-18T19:19:57.150Z,-0.57
2023-01-18T19:22:24.418Z,-0.61
2023-01-18T19:24:50.967Z,-0.57
2023-01-18T19:27:17.496Z,-0.56
2023-01-18T19:29:43.953Z,-0.54
2023-01-18T19:32:10.464Z,-0.53
2023-01-18T19:34:37.623Z,-0.55
2023-01-18T19:37:04.154Z,-0.59
2023-01-18T19:39:33.738Z,-0.59
2023-01-18T19:42:02.346Z,-0.58
2023-01-18T19:44:29.328Z,-0.54
2023-01-18T19:46:56.180Z,-0.46
2023-01-18T19:49:25.867Z,-0.52
2023-01-18T19:51:53.035Z,-0.60
2023-01-18T19:54:19.926Z,-0.58
2023-01-18T19:56:47.184Z,-0.59
2023-01-18T19:59:14.417Z,-0.55
2023-01-18T20:01:40.985Z,-0.54
2023-01-18T20:04:07.880Z,-0.63
2023-01-18T20:06:36.609Z,-0.63
2023-01-18T20:09:07.342Z,-0.60
2023-01-18T20:11:36.480Z,-0.58
2023-01-18T20:14:04.198Z,-0.50
2023-01-18T20:16:30.825Z,-0.55
2023-01-18T20:18:58.954Z,-0.54
2023-01-18T20:21:25.441Z,-0.59
2023-01-18T20:23:55.233Z,-0.62
2023-01-18T20:26:31.237Z,-0.62
2023-01-18T20:29:02.167Z,-0.62
2023-01-18T20:31:29.485Z,-0.53
2023-01-18T20:33:56.162Z,-0.43
2023-01-18T20:36:22.734Z,-0.51
2023-01-18T20:38:51.722Z,-0.49
2023-01-18T20:41:18.159Z,-0.41
2023-01-18T20:43:44.794Z,-0.45
2023-01-18T20:46:11.936Z,-0.30
2023-01-18T20:48:39.271Z,-0.42
2023-01-18T20:51:07.054Z,-0.44
2023-01-18T20:53:33.927Z,-0.51
2023-01-18T20:56:11.938Z,-0.52
2023-01-18T20:58:49.826Z,-0.59
2023-01-18T21:01:17.206Z,-0.71
2023-01-18T21:03:46.598Z,-0.65
2023-01-18T21:06:15.316Z,-0.64
2023-01-18T21:08:41.890Z,-0.64
2023-01-18T21:11:12.340Z,-0.61
2023-01-18T21:13:38.871Z,-0.72
2023-01-18T21:16:06.004Z,-0.66
2023-01-18T21:18:36.842Z,-0.74
2023-01-18T21:21:04.607Z,-0.62
2023-01-18T21:23:38.518Z,-0.80
2023-01-18T21:26:08.698Z,-0.64
2023-01-18T21:28:35.494Z,-0.73
2023-01-18T21:31:02.058Z,-0.65
2023-01-18T21:33:28.564Z,-0.64
2023-01-18T21:35:55.085Z,-0.90
2023-01-18T21:38:23.083Z,-0.75
2023-01-18T21:40:49.609Z,-0.74
2023-01-18T21:43:36.816Z,-0.77
2023-01-18T21:46:04.077Z,-0.73
2023-01-18T21:48:31.223Z,-0.64
2023-01-18T21:51:18.324Z,-0.71
2023-01-18T21:54:09.506Z,-0.71
2023-01-18T21:56:36.751Z,-0.65
2023-01-18T21:59:03.490Z,-0.68
2023-01-18T22:01:33.444Z,-0.73
2023-01-18T22:04:22.202Z,-0.87
2023-01-18T22:06:48.936Z,-0.84
2023-01-18T22:09:16.045Z,-0.68
2023-01-18T22:11:42.620Z,-0.70
2023-01-18T22:14:14.103Z,-0.84
2023-01-18T22:16:40.784Z,-0.88
2023-01-18T22:19:07.792Z,-1.05
2023-01-18T22:21:34.169Z,-0.92
2023-01-18T22:24:00.993Z,-0.90
2023-01-18T22:26:30.959Z,-0.95
2023-01-18T22:28:57.576Z,-0.92
2023-01-18T22:31:24.735Z,-0.96
2023-01-18T22:33:51.533Z,-0.81
2023-01-18T22:36:18.849Z,-0.89
2023-01-18T22:38:45.316Z,-0.85
2023-01-18T22:41:16.411Z,-0.92
2023-01-18T22:43:44.165Z,-0.87
2023-01-18T22:46:13.136Z,-0.77
2023-01-18T22:48:39.902Z,-0.78
2023-01-18T22:51:07.278Z,-0.77
2023-01-18T22:53:34.725Z,-0.72
2023-01-18T22:56:02.417Z,-0.77
2023-01-18T22:58:29.593Z,-0.76
2023-01-18T23:00:56.675Z,-0.93
2023-01-18T23:03:23.444Z,-0.79
2023-01-18T23:05:53.827Z,-0.81
2023-01-18T23:08:28.461Z,-0.73
2023-01-18T23:10:55.788Z,0.54
2023-01-18T23:13:22.700Z,1.23
2023-01-18T23:16:07.328Z,1.15
2023-01-18T23:18:38.795Z,0.23
2023-01-18T23:21:05.322Z,0.02
2023-01-18T23:23:33.870Z,-0.26
2023-01-18T23:26:00.593Z,-0.59
2023-01-18T23:28:40.335Z,-0.57
2023-01-18T23:31:06.907Z,-0.64
2023-01-18T23:33:33.454Z,-0.65
2023-01-18T23:36:00.660Z,-0.51
2023-01-18T23:38:27.044Z,-0.51
2023-01-18T23:41:18.654Z,-0.61
2023-01-18T23:44:03.080Z,-0.65
2023-01-18T23:47:05.369Z,-0.42
2023-01-18T23:49:50.121Z,-0.48
2023-01-18T23:52:35.579Z,-0.49
2023-01-18T23:55:01.993Z,-0.11
2023-01-18T23:57:29.719Z,-0.29
2023-01-18T23:59:56.215Z,-0.40
